Time;durP1;ratioP1;P1;durP2;ratioP2;P2;SDS_P1;SDS_P2;PMS_P1;PMS_P2;Temp;Humidity;BMP_temperature;BMP_pressure;BME280_temperature;BME280_humidity;BME280_pressure;Samples;Min_cycle;Max_cycle;Signal;HPM_P1;HPM_P2
2021/10/01 00:02:18;;;;;;;4.30;1.50;;;13.30;99.90;;;;;;5067293;28;20165;-74
2021/10/01 00:04:44;;;;;;;1.50;1.10;;;13.40;99.90;;;;;;5049298;28;20191;-74
2021/10/01 00:07:11;;;;;;;2.13;1.60;;;13.30;99.90;;;;;;5067317;28;20165;-74
2021/10/01 00:09:38;;;;;;;2.05;1.30;;;13.30;99.90;;;;;;5067244;28;20642;-74
2021/10/01 00:12:06;;;;;;;1.83;1.30;;;13.20;99.90;;;;;;5065738;28;20161;-74
2021/10/01 00:14:33;;;;;;;2.00;1.27;;;13.30;99.90;;;;;;5067273;28;20160;-74
2021/10/01 00:16:59;;;;;;;2.10;1.20;;;13.30;99.90;;;;;;5067091;28;20230;-74
2021/10/01 00:19:26;;;;;;;1.25;1.15;;;13.30;99.90;;;;;;5067133;28;20193;-74
2021/10/01 00:21:52;;;;;;;1.80;1.15;;;13.10;99.90;;;;;;5067226;28;20157;-74
2021/10/01 00:24:18;;;;;;;1.08;0.90;;;13.00;99.90;;;;;;5067144;28;20240;-74
2021/10/01 00:26:44;;;;;;;1.73;1.10;;;12.90;99.90;;;;;;5048986;28;20197;-74
2021/10/01 00:29:11;;;;;;;2.08;1.30;;;12.80;99.90;;;;;;5065633;28;20192;-74
2021/10/01 00:31:38;;;;;;;1.45;1.25;;;12.60;99.90;;;;;;5067231;28;20179;-74
2021/10/01 00:34:06;;;;;;;2.03;1.30;;;12.60;99.90;;;;;;5067137;28;20240;-74
2021/10/01 00:36:32;;;;;;;1.30;1.02;;;12.60;99.90;;;;;;5067097;28;20179;-74
2021/10/01 00:38:59;;;;;;;2.10;1.48;;;12.80;99.90;;;;;;5067110;28;20200;-74
2021/10/01 00:41:27;;;;;;;1.30;1.20;;;12.80;99.90;;;;;;5067133;28;20178;-74
2021/10/01 00:43:54;;;;;;;1.38;1.27;;;12.60;99.90;;;;;;5067220;28;20160;-73
2021/10/01 00:46:20;;;;;;;1.70;1.60;;;12.50;99.90;;;;;;5067221;28;20215;-74
2021/10/01 00:48:47;;;;;;;1.48;1.17;;;12.70;99.90;;;;;;5067233;28;20212;-74
2021/10/01 00:51:12;;;;;;;1.30;1.20;;;12.70;99.90;;;;;;5067498;28;20165;-73
2021/10/01 00:53:38;;;;;;;5.03;1.30;;;12.50;99.90;;;;;;5067885;28;20164;-74
2021/10/01 00:56:05;;;;;;;1.58;1.23;;;12.40;99.90;;;;;;5067256;28;20196;-74
2021/10/01 00:58:31;;;;;;;1.23;1.13;;;12.50;99.90;;;;;;5067350;28;20196;-74
2021/10/01 01:03:29;;;;;;;1.15;1.05;;;12.60;99.90;;;;;;5067269;28;20264;-74
2021/10/01 01:06:06;;;;;;;1.75;1.55;;;12.70;99.90;;;;;;5066748;28;20238;-74
2021/10/01 01:08:55;;;;;;;1.55;1.23;;;12.70;99.90;;;;;;5066569;28;20658;-74
2021/10/01 01:11:56;;;;;;;3.58;1.17;;;12.60;99.90;;;;;;5048505;28;20207;-74
2021/10/01 01:14:59;;;;;;;1.50;1.40;;;12.50;99.90;;;;;;5048419;28;20180;-74
2021/10/01 01:17:44;;;;;;;1.25;1.15;;;12.60;99.90;;;;;;5064201;28;20281;-74
2021/10/01 01:20:36;;;;;;;1.88;1.50;;;12.50;99.90;;;;;;5066579;28;20173;-73
2021/10/01 01:23:39;;;;;;;5.75;2.20;;;12.50;99.90;;;;;;5066599;28;20153;-74
2021/10/01 01:26:24;;;;;;;6.95;3.35;;;12.50;99.90;;;;;;5048498;28;20289;-73
2021/10/01 01:29:07;;;;;;;5.10;2.47;;;12.50;99.90;;;;;;5049551;28;20203;-73
2021/10/01 01:31:38;;;;;;;2.42;1.52;;;12.50;99.90;;;;;;5070196;28;20210;-73
2021/10/01 01:34:05;;;;;;;2.50;1.50;;;12.50;99.90;;;;;;5070113;28;20149;-74
2021/10/01 01:36:31;;;;;;;1.55;1.30;;;12.50;99.90;;;;;;5070197;28;20161;-74
2021/10/01 01:38:59;;;;;;;2.30;1.35;;;12.30;99.90;;;;;;5070173;28;20192;-74
2021/10/01 01:41:28;;;;;;;1.42;1.00;;;12.20;99.90;;;;;;5070147;28;20173;-74
2021/10/01 01:43:56;;;;;;;1.52;1.20;;;12.20;99.90;;;;;;5052221;28;20182;-74
2021/10/01 01:46:23;;;;;;;2.05;1.20;;;12.20;99.90;;;;;;5070078;28;20184;-74
2021/10/01 01:48:50;;;;;;;2.92;1.35;;;12.30;99.90;;;;;;5069968;28;20199;-74
2021/10/01 01:51:17;;;;;;;1.55;1.35;;;12.30;99.90;;;;;;5069796;28;20177;-74
2021/10/01 01:53:45;;;;;;;1.63;1.13;;;12.20;99.90;;;;;;5070041;28;20153;-74
2021/10/01 01:56:12;;;;;;;1.52;1.20;;;12.10;99.90;;;;;;5069869;28;20164;-74
2021/10/01 01:58:39;;;;;;;1.25;1.10;;;12.00;99.90;;;;;;5068498;28;20197;-74
2021/10/01 02:01:06;;;;;;;1.38;1.27;;;12.00;99.90;;;;;;5069908;28;20164;-74
2021/10/01 02:03:34;;;;;;;0.95;0.95;;;12.00;99.90;;;;;;5069861;28;20161;-74
2021/10/01 02:06:02;;;;;;;1.95;1.13;;;11.90;99.90;;;;;;5069683;28;20541;-74
2021/10/01 02:08:30;;;;;;;1.63;0.93;;;11.90;99.90;;;;;;5067597;28;20192;-74
2021/10/01 02:10:57;;;;;;;0.80;0.80;;;11.90;99.90;;;;;;5069533;28;20169;-74
2021/10/01 02:13:24;;;;;;;1.30;1.20;;;11.80;99.90;;;;;;5069635;28;20234;-74
2021/10/01 02:15:54;;;;;;;4.25;1.20;;;11.70;99.90;;;;;;5069731;28;20656;-74
2021/10/01 02:18:27;;;;;;;1.15;1.08;;;11.60;99.90;;;;;;5069409;28;20264;-74
2021/10/01 02:20:55;;;;;;;0.80;0.80;;;11.60;99.90;;;;;;5069521;28;20157;-74
2021/10/01 02:23:22;;;;;;;2.47;0.85;;;11.50;99.90;;;;;;5069310;28;20220;-74
2021/10/01 02:28:42;;;;;;;1.70;1.35;;;10.90;99.90;;;;;;5069139;28;20242;-74
2021/10/01 02:31:20;;;;;;;3.03;1.70;;;11.00;99.90;;;;;;5069122;28;20156;-72
2021/10/01 02:33:48;;;;;;;1.98;1.40;;;10.70;99.90;;;;;;5069027;28;20188;-73
2021/10/01 02:36:14;;;;;;;1.38;1.20;;;10.70;99.90;;;;;;5068922;28;20668;-74
2021/10/01 02:38:40;;;;;;;2.30;1.67;;;10.70;99.90;;;;;;5068824;28;20192;-74
2021/10/01 02:41:06;;;;;;;2.95;1.70;;;10.80;99.90;;;;;;5067936;28;20234;-74
2021/10/01 02:43:32;;;;;;;5.07;1.40;;;10.80;99.90;;;;;;5067726;28;20204;-73
2021/10/01 02:45:58;;;;;;;1.10;1.00;;;10.80;99.90;;;;;;5069018;28;20189;-74
2021/10/01 02:48:24;;;;;;;2.70;1.42;;;10.70;99.90;;;;;;5069207;28;20184;-75
2021/10/01 02:50:57;;;;;;;2.95;1.88;;;10.80;99.90;;;;;;5069184;28;20157;-75
2021/10/01 02:53:47;;;;;;;2.03;1.65;;;10.70;99.90;;;;;;5068743;28;20285;-74
2021/10/01 02:56:17;;;;;;;3.72;1.88;;;10.70;99.90;;;;;;5068938;28;20153;-74
2021/10/01 02:58:55;;;;;;;4.50;2.00;;;10.70;99.90;;;;;;5068657;28;20192;-74
2021/10/01 03:01:23;;;;;;;6.10;1.40;;;10.70;99.90;;;;;;5068658;28;20179;-74
2021/10/01 03:03:53;;;;;;;2.28;2.00;;;10.60;99.90;;;;;;5068639;28;20161;-73
2021/10/01 03:06:20;;;;;;;1.65;1.45;;;10.60;99.90;;;;;;5068772;28;20208;-74
2021/10/01 03:08:50;;;;;;;2.67;1.70;;;10.60;99.90;;;;;;5050362;28;20192;-73
2021/10/01 03:11:17;;;;;;;3.80;2.17;;;10.60;99.90;;;;;;5067992;28;20561;-74
2021/10/01 03:13:49;;;;;;;3.72;1.90;;;10.50;99.90;;;;;;5068380;28;20191;-74
2021/10/01 03:16:18;;;;;;;3.42;2.40;;;10.50;99.90;;;;;;5068293;28;20510;-74
2021/10/01 03:18:46;;;;;;;4.85;2.15;;;10.40;99.90;;;;;;5069185;28;20192;-75
2021/10/01 03:21:13;;;;;;;4.35;2.28;;;10.30;99.90;;;;;;5068803;28;20168;-73
2021/10/01 03:23:42;;;;;;;2.22;1.95;;;10.30;99.90;;;;;;5068269;28;20168;-73
2021/10/01 03:26:08;;;;;;;1.92;1.83;;;10.40;99.90;;;;;;5068275;28;20220;-73
2021/10/01 03:28:40;;;;;;;3.00;2.38;;;10.50;99.90;;;;;;5068140;28;20218;-73
2021/10/01 03:31:06;;;;;;;2.83;2.17;;;10.50;99.90;;;;;;5068256;28;20187;-73
2021/10/01 03:33:32;;;;;;;3.30;1.85;;;10.50;99.90;;;;;;5068120;28;20168;-73
2021/10/01 03:35:59;;;;;;;3.75;2.25;;;10.50;99.90;;;;;;5068180;28;20226;-72
2021/10/01 03:38:25;;;;;;;3.80;1.77;;;10.40;99.90;;;;;;5067816;28;20196;-73
2021/10/01 03:40:52;;;;;;;2.80;1.90;;;10.40;99.90;;;;;;5050212;28;20283;-75
2021/10/01 03:43:24;;;;;;;2.33;1.90;;;10.30;99.90;;;;;;5068254;28;20648;-74
2021/10/01 03:45:50;;;;;;;2.65;2.05;;;10.20;99.90;;;;;;5068005;28;20243;-73
2021/10/01 03:48:17;;;;;;;4.25;2.35;;;10.20;99.90;;;;;;5067966;28;20206;-75
2021/10/01 03:50:43;;;;;;;2.40;1.77;;;10.20;99.90;;;;;;5067757;28;20202;-73
2021/10/01 03:53:09;;;;;;;2.80;1.90;;;10.00;99.90;;;;;;5067243;28;20317;-73
2021/10/01 03:55:35;;;;;;;1.83;1.63;;;9.90;99.90;;;;;;5068001;28;20240;-74
2021/10/01 03:58:01;;;;;;;2.85;2.20;;;9.90;99.90;;;;;;5067910;28;20255;-74
2021/10/01 04:00:28;;;;;;;1.90;1.63;;;10.00;99.90;;;;;;5049995;28;20179;-75
2021/10/01 04:02:53;;;;;;;2.88;1.95;;;10.00;99.90;;;;;;5067749;28;20188;-72
2021/10/01 04:05:19;;;;;;;2.72;2.30;;;10.00;99.90;;;;;;5067737;28;20515;-74
2021/10/01 04:07:45;;;;;;;3.17;2.00;;;10.00;99.90;;;;;;5067795;28;20553;-75
2021/10/01 04:10:12;;;;;;;1.70;1.60;;;10.00;99.90;;;;;;5067656;28;20157;-74
2021/10/01 04:12:38;;;;;;;2.83;2.35;;;9.90;99.90;;;;;;5067778;28;20172;-74
2021/10/01 04:15:06;;;;;;;2.45;2.05;;;9.80;99.90;;;;;;5067809;28;20224;-72
2021/10/01 04:17:32;;;;;;;7.05;2.33;;;9.80;99.90;;;;;;5067697;28;20210;-74
2021/10/01 04:19:58;;;;;;;2.10;1.85;;;9.60;99.90;;;;;;5067542;28;20554;-75
2021/10/01 04:22:25;;;;;;;6.78;2.70;;;9.50;99.90;;;;;;5067770;28;20216;-72
2021/10/01 04:24:51;;;;;;;6.80;3.17;;;9.30;99.90;;;;;;5067588;28;20256;-72
2021/10/01 04:27:17;;;;;;;3.67;2.72;;;9.40;99.90;;;;;;5067531;28;20273;-74
2021/10/01 04:29:43;;;;;;;3.10;2.03;;;9.30;99.90;;;;;;5049274;28;20188;-73
2021/10/01 04:32:10;;;;;;;2.58;2.20;;;9.20;99.90;;;;;;5067470;28;20172;-73
2021/10/01 04:37:11;;;;;;;2.97;2.47;;;9.10;99.90;;;;;;5067266;28;20164;-72
2021/10/01 04:39:37;;;;;;;2.03;1.83;;;9.20;99.90;;;;;;5067155;28;20198;-72
2021/10/01 04:42:03;;;;;;;4.40;2.55;;;9.20;99.90;;;;;;5067136;28;20228;-72
2021/10/01 04:44:29;;;;;;;4.13;2.50;;;9.20;99.90;;;;;;5049209;28;20705;-73
2021/10/01 04:46:55;;;;;;;3.38;2.13;;;9.10;99.90;;;;;;5067048;28;20657;-74
2021/10/01 04:49:21;;;;;;;5.18;2.42;;;9.10;99.90;;;;;;5049143;28;20204;-74
2021/10/01 04:51:47;;;;;;;3.25;2.53;;;9.10;99.90;;;;;;5067360;28;20216;-74
2021/10/01 04:54:13;;;;;;;2.65;2.42;;;9.10;99.90;;;;;;5067697;28;20180;-73
2021/10/01 04:56:39;;;;;;;3.60;2.20;;;9.20;99.90;;;;;;5067368;28;20153;-74
2021/10/01 04:59:04;;;;;;;6.75;2.55;;;9.20;99.90;;;;;;5067002;28;20624;-73
2021/10/01 05:01:30;;;;;;;4.15;2.72;;;9.20;99.90;;;;;;5067455;28;20165;-74
2021/10/01 05:03:56;;;;;;;4.38;2.40;;;9.10;99.90;;;;;;5068766;28;20164;-73
2021/10/01 05:06:22;;;;;;;3.90;2.55;;;9.20;99.90;;;;;;5053230;28;20271;-73
2021/10/01 05:08:48;;;;;;;4.03;2.47;;;9.20;99.90;;;;;;5071092;28;20192;-74
2021/10/01 05:11:14;;;;;;;5.10;2.65;;;9.10;99.90;;;;;;5071206;28;20160;-75
2021/10/01 05:13:40;;;;;;;4.65;2.45;;;9.30;99.90;;;;;;5053281;28;20157;-74
2021/10/01 05:16:06;;;;;;;3.00;2.20;;;9.40;99.90;;;;;;5071449;28;20195;-73
2021/10/01 05:18:33;;;;;;;2.45;2.15;;;9.40;99.90;;;;;;5071262;28;20215;-73
2021/10/01 05:21:02;;;;;;;5.55;2.65;;;9.50;99.90;;;;;;5071105;28;20200;-73
2021/10/01 05:23:30;;;;;;;2.95;2.45;;;9.40;99.90;;;;;;5071053;28;20164;-73
2021/10/01 05:25:57;;;;;;;4.85;2.50;;;9.50;99.90;;;;;;5070364;28;20220;-73
2021/10/01 05:28:24;;;;;;;7.18;2.60;;;9.50;99.90;;;;;;5069431;28;20222;-74
2021/10/01 05:30:51;;;;;;;4.13;2.25;;;9.50;99.90;;;;;;5070877;28;20196;-75
2021/10/01 05:33:17;;;;;;;3.10;2.20;;;9.60;99.90;;;;;;5052529;28;20227;-73
2021/10/01 05:35:45;;;;;;;6.10;3.10;;;9.70;99.90;;;;;;5052593;28;20169;-74
2021/10/01 05:38:12;;;;;;;7.22;3.17;;;9.70;99.90;;;;;;5070758;28;20192;-74
2021/10/01 05:40:39;;;;;;;5.20;2.70;;;9.70;99.90;;;;;;5070745;28;20156;-74
2021/10/01 05:43:06;;;;;;;5.70;3.05;;;9.70;99.90;;;;;;5070461;28;20157;-74
2021/10/01 05:45:34;;;;;;;6.95;3.03;;;9.70;99.90;;;;;;5069673;28;20199;-73
2021/10/01 05:48:03;;;;;;;3.90;2.67;;;9.80;99.90;;;;;;5050173;28;20270;-73
2021/10/01 05:50:32;;;;;;;3.47;2.65;;;9.80;99.90;;;;;;5070690;28;20163;-74
2021/10/01 05:53:05;;;;;;;3.72;2.63;;;9.80;99.90;;;;;;5070207;28;20231;-73
2021/10/01 05:55:31;;;;;;;2.92;2.20;;;9.80;99.90;;;;;;5070486;28;20186;-73
2021/10/01 05:57:58;;;;;;;4.28;2.42;;;9.80;99.90;;;;;;5070299;28;20212;-73
2021/10/01 06:00:24;;;;;;;8.02;3.13;;;9.80;99.90;;;;;;5070294;28;20161;-74
2021/10/01 06:02:52;;;;;;;3.45;3.10;;;9.80;99.90;;;;;;5069003;28;20199;-76
2021/10/01 06:05:18;;;;;;;3.60;3.00;;;10.00;99.90;;;;;;5070310;28;20212;-74
2021/10/01 06:07:44;;;;;;;5.95;3.00;;;10.00;99.90;;;;;;5070303;28;20226;-72
2021/10/01 06:10:11;;;;;;;3.00;2.75;;;10.10;99.90;;;;;;5070188;28;20637;-75
2021/10/01 06:12:38;;;;;;;6.47;2.97;;;10.10;99.90;;;;;;5052246;28;20171;-73
2021/10/01 06:15:06;;;;;;;4.63;2.88;;;10.30;99.90;;;;;;5069671;28;20153;-73
2021/10/01 06:17:32;;;;;;;3.70;2.83;;;10.30;99.90;;;;;;5070118;28;20221;-75
2021/10/01 06:20:01;;;;;;;3.53;3.13;;;10.30;99.90;;;;;;5069784;28;20192;-73
2021/10/01 06:22:26;;;;;;;3.15;2.55;;;10.40;99.90;;;;;;5070183;28;20326;-74
2021/10/01 06:24:52;;;;;;;2.95;2.45;;;10.50;99.90;;;;;;5051948;28;20173;-75
2021/10/01 06:27:19;;;;;;;4.20;3.35;;;10.70;99.90;;;;;;5069729;28;20246;-74
2021/10/01 06:29:48;;;;;;;7.63;3.83;;;10.70;99.90;;;;;;5069908;28;20188;-74
2021/10/01 06:32:14;;;;;;;4.35;3.33;;;10.80;99.90;;;;;;5069615;28;20175;-73
2021/10/01 06:34:40;;;;;;;6.72;3.15;;;11.00;99.90;;;;;;5069400;28;20161;-74
2021/10/01 06:37:06;;;;;;;4.57;3.58;;;11.00;99.90;;;;;;5069579;28;20212;-73
2021/10/01 06:39:31;;;;;;;4.78;3.47;;;11.10;99.90;;;;;;5069097;28;20192;-73
2021/10/01 06:41:58;;;;;;;6.93;3.70;;;11.00;99.90;;;;;;5069334;28;20309;-74
2021/10/01 06:44:27;;;;;;;6.40;3.20;;;11.00;99.90;;;;;;5069113;28;20171;-73
2021/10/01 06:47:02;;;;;;;8.30;3.35;;;11.10;99.90;;;;;;5068923;28;20288;-73
2021/10/01 08:19:29;;;;;;;3.63;2.15;;;20.00;99.90;;;;;;5064638;28;21120;-73
2021/10/01 08:21:58;;;;;;;5.45;2.47;;;19.50;99.90;;;;;;5063194;28;20196;-73
2021/10/01 08:24:25;;;;;;;3.22;1.83;;;18.70;99.90;;;;;;5047019;28;20350;-73
2021/10/01 08:26:52;;;;;;;4.15;2.20;;;19.30;99.90;;;;;;5065192;28;20208;-73
2021/10/01 08:29:19;;;;;;;4.03;2.22;;;18.70;99.90;;;;;;5066151;28;20177;-74
2021/10/01 08:31:46;;;;;;;2.80;1.67;;;18.60;99.90;;;;;;5066247;28;20490;-73
2021/10/01 08:34:12;;;;;;;1.52;1.17;;;18.50;99.90;;;;;;5065701;28;20184;-72
2021/10/01 08:36:39;;;;;;;1.55;1.35;;;18.00;99.90;;;;;;5065571;28;20176;-72
2021/10/01 08:39:06;;;;;;;1.58;1.48;;;17.80;99.90;;;;;;5063929;28;20601;-72
2021/10/01 08:41:33;;;;;;;1.90;1.35;;;18.00;99.90;;;;;;5047825;28;20177;-72
2021/10/01 08:43:59;;;;;;;3.42;1.52;;;18.50;99.90;;;;;;5065369;28;20693;-74
2021/10/01 08:46:27;;;;;;;0.95;0.95;;;18.70;99.90;;;;;;5065930;28;20239;-71
2021/10/01 08:48:54;;;;;;;2.05;1.60;;;19.40;99.90;;;;;;5066038;28;20156;-72
2021/10/01 08:51:20;;;;;;;3.17;1.70;;;20.10;99.90;;;;;;5007074;28;1680444;-71
2021/10/01 08:53:48;;;;;;;1.73;1.52;;;20.60;99.90;;;;;;5066862;28;20210;-73
2021/10/01 08:56:14;;;;;;;1.55;1.20;;;20.40;99.90;;;;;;5066756;28;20164;-72
2021/10/01 08:58:40;;;;;;;1.80;1.20;;;20.80;99.90;;;;;;5048827;28;20207;-72
2021/10/01 09:01:06;;;;;;;3.70;2.13;;;21.10;99.90;;;;;;5048537;28;20191;-72
2021/10/01 09:03:32;;;;;;;1.52;1.27;;;21.50;99.90;;;;;;5066827;28;20269;-73
2021/10/01 09:05:58;;;;;;;2.97;1.35;;;20.40;99.90;;;;;;5066634;28;20188;-72
2021/10/01 09:08:25;;;;;;;1.58;1.20;;;18.90;99.90;;;;;;5066912;28;20152;-72
2021/10/01 09:11:02;;;;;;;1.40;1.02;;;18.70;99.90;;;;;;5066558;28;20167;-73
2021/10/01 09:13:29;;;;;;;5.78;1.63;;;20.10;99.90;;;;;;5066585;28;20195;-71
2021/10/01 09:16:10;;;;;;;2.08;1.20;;;20.30;99.90;;;;;;5066569;28;20187;-72
2021/10/01 09:18:39;;;;;;;1.42;1.10;;;19.80;99.90;;;;;;5065318;28;20190;-72
2021/10/01 09:21:13;;;;;;;1.77;0.85;;;20.60;99.90;;;;;;5065962;28;20637;-72
2021/10/01 09:23:46;;;;;;;1.00;1.00;;;19.70;99.90;;;;;;5066451;28;20199;-72
2021/10/01 09:26:15;;;;;;;1.05;0.90;;;18.90;99.90;;;;;;5065764;28;20198;-71
2021/10/01 09:29:03;;;;;;;1.73;1.20;;;18.40;99.90;;;;;;5048224;28;20169;-72
2021/10/01 09:31:31;;;;;;;4.40;1.70;;;18.60;99.90;;;;;;5066148;28;20160;-74
2021/10/01 09:33:57;;;;;;;3.33;1.15;;;18.50;99.90;;;;;;5048094;28;20219;-73
2021/10/01 09:36:26;;;;;;;2.40;1.35;;;17.80;99.90;;;;;;5066026;28;20168;-72
2021/10/01 09:38:53;;;;;;;1.40;1.30;;;18.20;99.90;;;;;;5066096;28;20160;-73
2021/10/01 09:41:28;;;;;;;2.05;1.20;;;19.20;99.90;;;;;;5066047;28;20240;-72
2021/10/01 09:44:18;;;;;;;2.28;1.65;;;19.20;99.90;;;;;;5065900;28;20252;-73
2021/10/01 09:46:47;;;;;;;1.77;1.30;;;19.20;99.90;;;;;;5066181;28;20184;-73
2021/10/01 09:49:15;;;;;;;6.70;1.40;;;19.90;99.90;;;;;;5066424;28;20247;-71
2021/10/01 09:51:50;;;;;;;3.20;1.20;;;20.10;99.90;;;;;;5048192;28;20220;-71
2021/10/01 09:54:17;;;;;;;1.83;0.95;;;19.80;99.90;;;;;;5049711;28;20697;-72
2021/10/01 09:56:43;;;;;;;3.17;1.00;;;19.20;99.90;;;;;;5051779;28;20201;-71
2021/10/01 09:59:15;;;;;;;2.00;1.10;;;19.00;99.90;;;;;;5057382;28;20177;-71
2021/10/01 10:02:03;;;;;;;3.00;1.10;;;18.40;99.90;;;;;;5049707;28;20157;-71
2021/10/01 10:04:33;;;;;;;2.83;1.00;;;19.20;99.90;;;;;;5029733;28;20188;-71
2021/10/01 10:07:27;;;;;;;3.92;1.33;;;19.10;99.90;;;;;;5029216;28;20742;-73
2021/10/01 10:10:05;;;;;;;1.58;0.95;;;19.70;99.90;;;;;;5028872;28;20236;-71
2021/10/01 10:12:34;;;;;;;1.85;0.98;;;20.40;99.90;;;;;;5029787;28;20153;-72
2021/10/01 10:15:02;;;;;;;1.25;0.88;;;20.60;99.90;;;;;;5029764;28;20596;-73
2021/10/01 10:17:29;;;;;;;0.98;0.80;;;20.50;99.90;;;;;;5044546;28;20284;-73
2021/10/01 10:19:59;;;;;;;2.00;0.80;;;21.20;99.90;;;;;;5048279;28;20275;-74
2021/10/01 10:22:28;;;;;;;1.27;0.90;;;22.20;99.90;;;;;;5048239;28;20173;-74
2021/10/01 10:24:55;;;;;;;1.20;0.80;;;21.50;99.90;;;;;;5047152;28;20444;-72
2021/10/01 10:27:22;;;;;;;0.70;0.70;;;21.50;99.90;;;;;;5047657;28;20279;-73
2021/10/01 10:29:48;;;;;;;1.17;0.98;;;21.70;99.90;;;;;;5048725;28;20199;-72
2021/10/01 10:32:16;;;;;;;4.78;1.30;;;21.50;99.90;;;;;;5048746;28;20206;-73
2021/10/01 10:34:57;;;;;;;1.17;0.80;;;20.60;99.90;;;;;;5048789;28;20153;-74
2021/10/01 10:37:44;;;;;;;1.13;1.02;;;20.60;99.90;;;;;;5048442;28;20228;-72
2021/10/01 10:40:12;;;;;;;0.95;0.70;;;21.40;99.90;;;;;;5048135;28;20192;-74
2021/10/01 10:42:44;;;;;;;2.92;1.05;;;22.60;99.90;;;;;;5049087;28;20183;-74
2021/10/01 10:45:15;;;;;;;1.42;0.57;;;22.80;99.90;;;;;;5049125;28;20193;-73
2021/10/01 10:48:01;;;;;;;0.70;0.60;;;21.60;99.90;;;;;;5046078;28;20185;-74
2021/10/01 10:50:38;;;;;;;0.98;0.65;;;23.00;99.90;;;;;;5049303;28;20188;-74
2021/10/01 10:55:35;;;;;;;0.75;0.43;;;23.50;99.70;;;;;;5068989;28;20224;-73
2021/10/01 10:58:23;;;;;;;0.73;0.30;;;22.50;98.90;;;;;;5050609;28;20200;-73
2021/10/01 11:01:00;;;;;;;2.40;0.63;;;21.50;99.20;;;;;;5068351;28;20175;-73
2021/10/01 11:03:35;;;;;;;0.50;0.40;;;20.80;99.90;;;;;;5068797;28;20164;-74
2021/10/01 11:06:10;;;;;;;0.30;0.28;;;21.30;99.90;;;;;;5068125;28;20199;-73
2021/10/01 11:08:49;;;;;;;0.20;0.20;;;21.60;97.80;;;;;;5068393;28;20647;-74
2021/10/01 11:11:30;;;;;;;1.08;0.50;;;21.70;98.10;;;;;;5048604;28;20175;-73
2021/10/01 11:14:14;;;;;;;1.52;0.50;;;21.80;98.80;;;;;;5066905;28;20274;-74
2021/10/01 11:16:41;;;;;;;0.50;0.50;;;22.20;99.50;;;;;;5068479;28;20164;-73
2021/10/01 11:19:09;;;;;;;2.47;1.15;;;23.50;98.20;;;;;;5070157;28;20206;-73
2021/10/01 11:21:42;;;;;;;1.50;0.50;;;23.90;99.40;;;;;;5067570;28;20180;-74
2021/10/01 11:24:17;;;;;;;0.60;0.35;;;24.40;95.90;;;;;;5050273;28;20191;-74
2021/10/01 11:26:49;;;;;;;0.63;0.40;;;24.50;98.40;;;;;;5068339;28;20191;-75
2021/10/01 11:29:36;;;;;;;1.40;0.43;;;25.50;97.30;;;;;;5050025;28;20192;-74
2021/10/01 11:32:24;;;;;;;0.60;0.60;;;25.00;95.80;;;;;;5068238;28;20160;-74
2021/10/01 11:34:50;;;;;;;4.78;0.43;;;24.30;96.30;;;;;;5068360;28;20160;-73
2021/10/01 11:37:48;;;;;;;2.25;0.65;;;24.00;96.00;;;;;;5068017;28;20169;-73
2021/10/01 11:40:19;;;;;;;1.10;0.40;;;22.70;97.60;;;;;;5068024;28;20152;-74
2021/10/01 11:42:47;;;;;;;0.98;0.40;;;22.80;95.60;;;;;;5067973;28;20229;-73
2021/10/01 11:45:21;;;;;;;0.90;0.40;;;23.70;97.20;;;;;;5067967;28;20219;-74
2021/10/01 11:48:02;;;;;;;2.65;0.60;;;24.60;97.40;;;;;;5067792;28;20219;-72
2021/10/01 11:50:56;;;;;;;0.90;0.43;;;24.70;95.30;;;;;;5066742;28;20195;-72
2021/10/01 11:53:24;;;;;;;0.70;0.30;;;23.70;96.10;;;;;;5045538;28;20239;-72
2021/10/01 11:56:02;;;;;;;2.72;0.47;;;23.30;96.00;;;;;;5067411;28;20172;-73
2021/10/01 11:58:31;;;;;;;0.47;0.40;;;24.10;96.10;;;;;;5067565;28;20264;-74
2021/10/01 12:01:12;;;;;;;0.50;0.40;;;24.20;94.50;;;;;;5066632;28;20227;-73
2021/10/01 12:03:53;;;;;;;2.20;0.65;;;23.90;93.70;;;;;;5049076;28;20172;-73
2021/10/01 12:06:27;;;;;;;0.50;0.30;;;22.40;96.40;;;;;;5067445;28;20184;-74
2021/10/01 12:09:12;;;;;;;0.65;0.50;;;22.30;95.80;;;;;;5047357;28;20173;-74
2021/10/01 12:11:41;;;;;;;1.85;0.77;;;21.40;97.10;;;;;;5046058;28;20196;-74
2021/10/01 12:14:23;;;;;;;0.77;0.30;;;20.70;99.60;;;;;;5047342;28;20187;-73
2021/10/01 12:17:05;;;;;;;2.60;0.60;;;19.40;98.80;;;;;;5047410;28;20533;-74
2021/10/01 12:19:33;;;;;;;0.40;0.30;;;18.80;99.90;;;;;;5057744;28;20264;-74
2021/10/01 12:22:12;;;;;;;0.50;0.30;;;18.40;99.90;;;;;;5066815;28;20294;-74
2021/10/01 12:24:49;;;;;;;1.08;0.30;;;18.60;99.90;;;;;;5066925;28;20176;-74
2021/10/01 12:27:17;;;;;;;0.60;0.30;;;18.40;99.70;;;;;;5067161;28;20189;-74
2021/10/01 12:29:51;;;;;;;0.95;0.50;;;18.40;99.90;;;;;;5066482;28;20192;-73
2021/10/01 12:32:20;;;;;;;1.92;0.40;;;18.70;99.90;;;;;;5067348;28;20229;-74
2021/10/01 12:34:59;;;;;;;1.00;0.50;;;18.50;99.90;;;;;;5067358;28;20244;-75
2021/10/01 12:37:30;;;;;;;0.50;0.50;;;18.30;99.90;;;;;;5066868;28;20157;-73
2021/10/01 12:40:03;;;;;;;1.67;0.50;;;18.10;99.90;;;;;;5066754;28;20207;-75
2021/10/01 12:42:37;;;;;;;1.05;0.40;;;18.20;99.90;;;;;;5067121;28;20570;-74
2021/10/01 12:45:09;;;;;;;0.70;0.40;;;18.10;99.90;;;;;;5067042;28;20578;-74
2021/10/01 12:47:40;;;;;;;0.50;0.50;;;18.30;99.90;;;;;;5066567;28;20230;-73
2021/10/01 12:50:17;;;;;;;0.20;0.20;;;18.40;99.90;;;;;;5066061;28;20192;-73
2021/10/01 12:52:55;;;;;;;1.90;0.50;;;18.60;99.90;;;;;;5065807;28;20331;-73
2021/10/01 12:55:22;;;;;;;0.88;0.38;;;18.60;99.90;;;;;;5070559;28;20188;-74
2021/10/01 12:57:50;;;;;;;0.40;0.38;;;18.10;99.90;;;;;;5078841;28;20168;-74
2021/10/01 13:00:21;;;;;;;0.57;0.57;;;18.10;99.90;;;;;;5078804;28;20200;-75
2021/10/01 13:02:48;;;;;;;0.73;0.50;;;18.20;99.90;;;;;;5077547;28;20211;-74
2021/10/01 13:05:21;;;;;;;1.83;0.55;;;18.20;99.90;;;;;;5064918;28;20169;-75
2021/10/01 13:07:58;;;;;;;0.57;0.50;;;18.20;99.90;;;;;;5066345;28;20197;-75
2021/10/01 13:10:25;;;;;;;0.75;0.50;;;18.30;99.90;;;;;;5066433;28;20188;-74
2021/10/01 13:12:50;;;;;;;0.60;0.45;;;18.10;99.90;;;;;;5068855;28;20236;-74
2021/10/01 13:15:21;;;;;;;2.63;0.55;;;18.20;99.90;;;;;;5080180;28;20234;-74
2021/10/01 13:18:08;;;;;;;0.95;0.60;;;18.20;99.90;;;;;;5066196;28;20161;-74
2021/10/01 13:20:40;;;;;;;3.92;1.15;;;18.20;99.90;;;;;;5066485;28;20152;-74
2021/10/01 13:23:28;;;;;;;1.05;0.80;;;18.30;99.90;;;;;;5066912;28;20226;-73
2021/10/01 13:25:56;;;;;;;0.77;0.70;;;18.30;99.90;;;;;;5008628;28;20224;-72
2021/10/01 13:28:24;;;;;;;0.40;0.40;;;18.20;99.90;;;;;;5058464;28;20214;-72
2021/10/01 13:30:51;;;;;;;1.42;0.73;;;18.20;99.90;;;;;;5067963;28;20199;-72
2021/10/01 13:33:19;;;;;;;0.70;0.63;;;18.20;99.90;;;;;;5070239;28;20157;-73
2021/10/01 13:35:45;;;;;;;0.50;0.50;;;18.20;99.90;;;;;;5070766;28;20164;-74
2021/10/01 13:38:12;;;;;;;3.15;0.80;;;18.10;99.90;;;;;;5065581;28;20256;-72
2021/10/01 13:40:39;;;;;;;0.90;0.80;;;18.30;99.90;;;;;;5069935;28;20201;-73
2021/10/01 13:43:06;;;;;;;0.70;0.70;;;18.40;99.90;;;;;;5070045;28;20175;-74
2021/10/01 13:45:33;;;;;;;1.33;0.88;;;18.20;99.90;;;;;;5066209;28;20200;-74
2021/10/01 13:48:00;;;;;;;1.25;0.70;;;18.20;99.90;;;;;;5075865;28;20265;-73
2021/10/01 13:50:26;;;;;;;0.68;0.60;;;18.40;99.90;;;;;;5072103;28;20160;-73
2021/10/01 13:52:52;;;;;;;4.05;1.20;;;18.20;99.90;;;;;;5068505;28;20224;-73
2021/10/01 13:55:19;;;;;;;1.63;0.63;;;18.40;99.90;;;;;;5070023;28;20164;-74
2021/10/01 13:57:48;;;;;;;1.10;0.60;;;18.50;99.90;;;;;;5069148;28;20404;-74
2021/10/01 14:00:15;;;;;;;1.73;0.68;;;18.50;99.90;;;;;;5068798;28;20161;-72
2021/10/01 14:02:43;;;;;;;0.93;0.80;;;18.50;99.90;;;;;;5068928;28;20167;-72
2021/10/01 14:05:12;;;;;;;2.60;0.75;;;18.30;99.90;;;;;;5069360;28;20153;-72
2021/10/01 14:07:39;;;;;;;1.70;0.40;;;18.20;99.90;;;;;;5069488;28;20212;-72
2021/10/01 14:10:10;;;;;;;1.05;0.75;;;18.20;99.90;;;;;;5069517;28;20611;-72
2021/10/01 14:12:37;;;;;;;1.30;0.65;;;18.10;99.90;;;;;;5069519;28;20189;-72
2021/10/01 14:15:04;;;;;;;1.45;0.60;;;18.00;99.90;;;;;;5069937;28;20157;-75
2021/10/01 14:17:30;;;;;;;0.77;0.77;;;17.90;99.90;;;;;;5069673;28;20206;-72
2021/10/01 14:19:56;;;;;;;1.02;0.50;;;17.90;99.90;;;;;;5069681;28;20180;-72
2021/10/01 14:22:23;;;;;;;1.55;0.50;;;18.00;99.90;;;;;;5069296;28;20164;-72
2021/10/01 14:24:49;;;;;;;1.17;0.75;;;18.10;99.90;;;;;;5069444;28;20206;-73
2021/10/01 14:27:15;;;;;;;0.50;0.47;;;18.00;99.90;;;;;;5069604;28;20198;-73
2021/10/01 14:29:41;;;;;;;1.77;0.88;;;18.10;99.90;;;;;;5068825;28;20165;-75
2021/10/01 14:32:09;;;;;;;0.70;0.60;;;17.90;99.90;;;;;;5069870;28;20622;-74
2021/10/01 14:34:35;;;;;;;1.35;0.70;;;18.00;99.90;;;;;;5069782;28;20299;-74
2021/10/01 14:37:01;;;;;;;1.98;1.20;;;17.90;99.90;;;;;;5068141;28;20184;-74
2021/10/01 14:39:26;;;;;;;1.27;0.63;;;17.90;99.90;;;;;;5068253;28;20351;-74
2021/10/01 14:41:52;;;;;;;1.80;0.70;;;17.80;99.90;;;;;;5069549;28;20156;-74
2021/10/01 14:44:18;;;;;;;2.35;0.75;;;17.70;99.90;;;;;;5069537;28;20196;-74